sensor_id;sensor_type;location;lat;lon;timestamp;P1;durP1;ratioP1;P2;durP2;ratioP2
39540;SDS011;25219;52.244;21.006;2024-02-28T00:00:53;40.13;;;20.30;;
39540;SDS011;25219;52.244;21.006;2024-02-28T00:03:19;39.27;;;19.67;;
39540;SDS011;25219;52.244;21.006;2024-02-28T00:05:44;40.65;;;19.10;;
39540;SDS011;25219;52.244;21.006;2024-02-28T00:08:10;35.97;;;19.88;;
39540;SDS011;25219;52.244;21.006;2024-02-28T00:10:35;37.63;;;20.53;;
39540;SDS011;25219;52.244;21.006;2024-02-28T00:13:01;35.10;;;19.98;;
39540;SDS011;25219;52.244;21.006;2024-02-28T00:15:26;43.17;;;21.57;;
39540;SDS011;25219;52.244;21.006;2024-02-28T00:17:52;43.53;;;19.43;;
39540;SDS011;25219;52.244;21.006;2024-02-28T00:20:17;39.85;;;19.63;;
39540;SDS011;25219;52.244;21.006;2024-02-28T00:22:42;38.83;;;19.60;;
39540;SDS011;25219;52.244;21.006;2024-02-28T00:25:09;37.72;;;19.90;;
39540;SDS011;25219;52.244;21.006;2024-02-28T00:27:36;38.10;;;19.20;;
39540;SDS011;25219;52.244;21.006;2024-02-28T00:30:02;46.30;;;20.67;;
39540;SDS011;25219;52.244;21.006;2024-02-28T00:32:29;35.17;;;19.92;;
39540;SDS011;25219;52.244;21.006;2024-02-28T00:34:55;36.95;;;18.95;;
39540;SDS011;25219;52.244;21.006;2024-02-28T00:37:20;39.92;;;19.67;;
39540;SDS011;25219;52.244;21.006;2024-02-28T00:39:46;48.85;;;20.13;;
39540;SDS011;25219;52.244;21.006;2024-02-28T00:42:11;34.70;;;18.38;;
39540;SDS011;25219;52.244;21.006;2024-02-28T00:44:36;38.57;;;19.53;;
39540;SDS011;25219;52.244;21.006;2024-02-28T00:47:01;38.42;;;19.67;;
39540;SDS011;25219;52.244;21.006;2024-02-28T00:49:27;36.33;;;19.07;;
39540;SDS011;25219;52.244;21.006;2024-02-28T00:51:52;39.80;;;19.40;;
39540;SDS011;25219;52.244;21.006;2024-02-28T00:54:17;40.63;;;19.95;;
39540;SDS011;25219;52.244;21.006;2024-02-28T00:56:42;36.33;;;19.65;;
39540;SDS011;25219;52.244;21.006;2024-02-28T00:59:08;35.50;;;20.20;;
39540;SDS011;25219;52.244;21.006;2024-02-28T01:01:36;34.40;;;19.52;;
39540;SDS011;25219;52.244;21.006;2024-02-28T01:04:01;40.17;;;19.90;;
39540;SDS011;25219;52.244;21.006;2024-02-28T01:06:26;38.53;;;18.20;;
39540;SDS011;25219;52.244;21.006;2024-02-28T01:08:51;39.63;;;19.13;;
39540;SDS011;25219;52.244;21.006;2024-02-28T01:11:16;34.72;;;19.80;;
39540;SDS011;25219;52.244;21.006;2024-02-28T01:13:41;34.87;;;19.40;;
39540;SDS011;25219;52.244;21.006;2024-02-28T01:16:06;38.50;;;19.00;;
39540;SDS011;25219;52.244;21.006;2024-02-28T01:18:32;35.67;;;20.00;;
39540;SDS011;25219;52.244;21.006;2024-02-28T01:20:57;32.50;;;18.85;;
39540;SDS011;25219;52.244;21.006;2024-02-28T01:23:22;41.75;;;20.77;;
39540;SDS011;25219;52.244;21.006;2024-02-28T01:25:47;40.35;;;19.98;;
39540;SDS011;25219;52.244;21.006;2024-02-28T01:28:13;39.40;;;19.20;;
39540;SDS011;25219;52.244;21.006;2024-02-28T01:30:38;34.03;;;19.03;;
39540;SDS011;25219;52.244;21.006;2024-02-28T01:33:03;38.47;;;19.53;;
39540;SDS011;25219;52.244;21.006;2024-02-28T01:35:28;35.70;;;20.20;;
39540;SDS011;25219;52.244;21.006;2024-02-28T01:37:54;37.42;;;19.85;;
39540;SDS011;25219;52.244;21.006;2024-02-28T01:40:19;42.33;;;18.80;;
39540;SDS011;25219;52.244;21.006;2024-02-28T01:42:44;35.53;;;19.00;;
39540;SDS011;25219;52.244;21.006;2024-02-28T01:45:13;36.37;;;20.10;;
39540;SDS011;25219;52.244;21.006;2024-02-28T01:47:38;35.03;;;18.95;;
39540;SDS011;25219;52.244;21.006;2024-02-28T01:50:04;37.25;;;19.80;;
39540;SDS011;25219;52.244;21.006;2024-02-28T01:52:29;36.28;;;20.35;;
39540;SDS011;25219;52.244;21.006;2024-02-28T01:54:55;38.35;;;20.48;;
39540;SDS011;25219;52.244;21.006;2024-02-28T01:57:20;37.83;;;20.00;;
39540;SDS011;25219;52.244;21.006;2024-02-28T01:59:45;37.78;;;20.08;;
39540;SDS011;25219;52.244;21.006;2024-02-28T02:02:11;41.95;;;20.55;;
39540;SDS011;25219;52.244;21.006;2024-02-28T02:04:36;37.43;;;20.87;;
39540;SDS011;25219;52.244;21.006;2024-02-28T02:07:01;44.53;;;20.98;;
39540;SDS011;25219;52.244;21.006;2024-02-28T02:09:26;40.33;;;20.60;;
39540;SDS011;25219;52.244;21.006;2024-02-28T02:11:51;36.23;;;21.00;;
39540;SDS011;25219;52.244;21.006;2024-02-28T02:14:17;37.55;;;19.98;;
39540;SDS011;25219;52.244;21.006;2024-02-28T02:16:42;42.07;;;20.30;;
39540;SDS011;25219;52.244;21.006;2024-02-28T02:19:08;43.23;;;20.77;;
39540;SDS011;25219;52.244;21.006;2024-02-28T02:21:57;40.05;;;21.23;;
39540;SDS011;25219;52.244;21.006;2024-02-28T02:24:19;39.90;;;21.60;;
39540;SDS011;25219;52.244;21.006;2024-02-28T02:26:44;39.80;;;21.37;;
39540;SDS011;25219;52.244;21.006;2024-02-28T02:29:11;43.70;;;22.30;;
39540;SDS011;25219;52.244;21.006;2024-02-28T02:31:37;50.83;;;23.63;;
39540;SDS011;25219;52.244;21.006;2024-02-28T02:34:02;42.03;;;21.23;;
39540;SDS011;25219;52.244;21.006;2024-02-28T02:36:27;43.20;;;22.13;;
39540;SDS011;25219;52.244;21.006;2024-02-28T02:38:52;43.40;;;23.27;;
39540;SDS011;25219;52.244;21.006;2024-02-28T02:41:17;52.00;;;23.00;;
39540;SDS011;25219;52.244;21.006;2024-02-28T02:43:43;43.03;;;23.40;;
39540;SDS011;25219;52.244;21.006;2024-02-28T02:46:08;48.83;;;23.77;;
39540;SDS011;25219;52.244;21.006;2024-02-28T02:48:33;46.08;;;23.83;;
39540;SDS011;25219;52.244;21.006;2024-02-28T02:50:58;45.93;;;23.57;;
39540;SDS011;25219;52.244;21.006;2024-02-28T02:53:23;42.87;;;23.73;;
39540;SDS011;25219;52.244;21.006;2024-02-28T02:55:48;42.97;;;23.40;;
39540;SDS011;25219;52.244;21.006;2024-02-28T02:58:14;45.27;;;23.80;;
39540;SDS011;25219;52.244;21.006;2024-02-28T03:00:39;45.00;;;23.00;;
39540;SDS011;25219;52.244;21.006;2024-02-28T03:03:04;43.67;;;23.70;;
39540;SDS011;25219;52.244;21.006;2024-02-28T03:05:30;46.95;;;24.83;;
39540;SDS011;25219;52.244;21.006;2024-02-28T03:07:55;49.80;;;25.50;;
39540;SDS011;25219;52.244;21.006;2024-02-28T03:10:20;51.93;;;24.80;;
39540;SDS011;25219;52.244;21.006;2024-02-28T03:12:46;49.00;;;25.70;;
39540;SDS011;25219;52.244;21.006;2024-02-28T03:15:11;46.17;;;25.80;;
39540;SDS011;25219;52.244;21.006;2024-02-28T03:17:36;51.08;;;25.48;;
39540;SDS011;25219;52.244;21.006;2024-02-28T03:20:01;42.77;;;24.73;;
39540;SDS011;25219;52.244;21.006;2024-02-28T03:22:26;53.03;;;26.17;;
39540;SDS011;25219;52.244;21.006;2024-02-28T03:24:51;49.22;;;25.70;;
39540;SDS011;25219;52.244;21.006;2024-02-28T03:27:17;51.67;;;26.33;;
39540;SDS011;25219;52.244;21.006;2024-02-28T03:29:42;45.40;;;26.23;;
39540;SDS011;25219;52.244;21.006;2024-02-28T03:32:07;49.25;;;26.48;;
39540;SDS011;25219;52.244;21.006;2024-02-28T03:34:33;49.33;;;26.92;;
39540;SDS011;25219;52.244;21.006;2024-02-28T03:36:58;58.67;;;27.77;;
39540;SDS011;25219;52.244;21.006;2024-02-28T03:39:23;56.17;;;29.50;;
39540;SDS011;25219;52.244;21.006;2024-02-28T03:41:48;53.20;;;28.07;;
39540;SDS011;25219;52.244;21.006;2024-02-28T03:44:13;50.67;;;27.57;;
39540;SDS011;25219;52.244;21.006;2024-02-28T03:46:38;54.50;;;29.37;;
39540;SDS011;25219;52.244;21.006;2024-02-28T03:49:04;54.03;;;28.23;;
39540;SDS011;25219;52.244;21.006;2024-02-28T03:51:29;50.38;;;26.88;;
39540;SDS011;25219;52.244;21.006;2024-02-28T03:53:54;54.17;;;29.13;;
39540;SDS011;25219;52.244;21.006;2024-02-28T03:56:23;52.22;;;28.67;;
39540;SDS011;25219;52.244;21.006;2024-02-28T03:58:52;51.67;;;28.13;;
39540;SDS011;25219;52.244;21.006;2024-02-28T04:01:17;53.90;;;29.83;;
39540;SDS011;25219;52.244;21.006;2024-02-28T04:03:42;54.10;;;30.27;;
39540;SDS011;25219;52.244;21.006;2024-02-28T04:06:07;61.47;;;29.65;;
39540;SDS011;25219;52.244;21.006;2024-02-28T04:08:32;59.23;;;29.87;;
39540;SDS011;25219;52.244;21.006;2024-02-28T04:10:57;51.33;;;30.00;;
39540;SDS011;25219;52.244;21.006;2024-02-28T04:13:23;59.90;;;29.30;;
39540;SDS011;25219;52.244;21.006;2024-02-28T04:15:48;57.00;;;30.42;;
39540;SDS011;25219;52.244;21.006;2024-02-28T04:18:13;58.20;;;30.00;;
39540;SDS011;25219;52.244;21.006;2024-02-28T04:20:38;56.47;;;30.23;;
39540;SDS011;25219;52.244;21.006;2024-02-28T04:23:03;59.05;;;29.92;;
39540;SDS011;25219;52.244;21.006;2024-02-28T04:25:29;56.90;;;30.08;;
39540;SDS011;25219;52.244;21.006;2024-02-28T04:27:54;55.67;;;28.97;;
39540;SDS011;25219;52.244;21.006;2024-02-28T04:30:19;57.97;;;29.88;;
39540;SDS011;25219;52.244;21.006;2024-02-28T04:32:44;65.20;;;30.87;;
39540;SDS011;25219;52.244;21.006;2024-02-28T04:35:09;63.33;;;31.35;;
39540;SDS011;25219;52.244;21.006;2024-02-28T04:37:35;60.17;;;30.95;;
39540;SDS011;25219;52.244;21.006;2024-02-28T04:40:01;54.70;;;29.98;;
39540;SDS011;25219;52.244;21.006;2024-02-28T04:42:26;57.92;;;31.80;;
39540;SDS011;25219;52.244;21.006;2024-02-28T04:44:51;59.25;;;30.10;;
39540;SDS011;25219;52.244;21.006;2024-02-28T04:47:16;55.00;;;31.50;;
39540;SDS011;25219;52.244;21.006;2024-02-28T04:49:41;49.00;;;29.90;;
39540;SDS011;25219;52.244;21.006;2024-02-28T04:52:07;55.47;;;30.73;;
39540;SDS011;25219;52.244;21.006;2024-02-28T04:54:32;55.40;;;30.03;;
39540;SDS011;25219;52.244;21.006;2024-02-28T04:56:57;54.80;;;29.27;;
39540;SDS011;25219;52.244;21.006;2024-02-28T04:59:22;58.70;;;30.70;;
39540;SDS011;25219;52.244;21.006;2024-02-28T05:01:47;53.50;;;28.80;;
39540;SDS011;25219;52.244;21.006;2024-02-28T05:04:13;57.57;;;30.87;;
39540;SDS011;25219;52.244;21.006;2024-02-28T05:06:38;53.78;;;28.65;;
39540;SDS011;25219;52.244;21.006;2024-02-28T05:09:03;54.53;;;28.47;;
39540;SDS011;25219;52.244;21.006;2024-02-28T05:11:29;54.95;;;30.02;;
39540;SDS011;25219;52.244;21.006;2024-02-28T05:13:54;55.43;;;29.07;;
39540;SDS011;25219;52.244;21.006;2024-02-28T05:16:19;56.60;;;27.20;;
39540;SDS011;25219;52.244;21.006;2024-02-28T05:18:45;54.90;;;27.10;;
39540;SDS011;25219;52.244;21.006;2024-02-28T05:21:11;55.08;;;28.85;;
39540;SDS011;25219;52.244;21.006;2024-02-28T05:23:36;51.60;;;28.25;;
39540;SDS011;25219;52.244;21.006;2024-02-28T05:26:01;56.53;;;29.20;;
39540;SDS011;25219;52.244;21.006;2024-02-28T05:28:29;50.40;;;28.25;;
39540;SDS011;25219;52.244;21.006;2024-02-28T05:30:54;50.25;;;27.25;;
39540;SDS011;25219;52.244;21.006;2024-02-28T05:33:19;51.87;;;26.87;;
39540;SDS011;25219;52.244;21.006;2024-02-28T05:35:44;51.03;;;27.83;;
39540;SDS011;25219;52.244;21.006;2024-02-28T05:38:09;53.40;;;29.80;;
39540;SDS011;25219;52.244;21.006;2024-02-28T05:40:35;55.72;;;30.05;;
39540;SDS011;25219;52.244;21.006;2024-02-28T05:43:00;58.53;;;30.53;;
39540;SDS011;25219;52.244;21.006;2024-02-28T05:45:27;56.58;;;30.92;;
39540;SDS011;25219;52.244;21.006;2024-02-28T05:47:52;56.07;;;29.67;;
39540;SDS011;25219;52.244;21.006;2024-02-28T05:50:17;58.90;;;30.70;;
39540;SDS011;25219;52.244;21.006;2024-02-28T05:52:42;61.38;;;30.48;;
39540;SDS011;25219;52.244;21.006;2024-02-28T05:55:07;62.08;;;29.67;;
39540;SDS011;25219;52.244;21.006;2024-02-28T05:57:33;56.13;;;30.35;;
39540;SDS011;25219;52.244;21.006;2024-02-28T05:59:58;68.78;;;33.70;;
39540;SDS011;25219;52.244;21.006;2024-02-28T06:02:23;56.35;;;30.35;;
39540;SDS011;25219;52.244;21.006;2024-02-28T06:04:48;54.93;;;31.13;;
39540;SDS011;25219;52.244;21.006;2024-02-28T06:07:14;56.30;;;29.48;;
39540;SDS011;25219;52.244;21.006;2024-02-28T06:09:39;57.13;;;30.93;;
39540;SDS011;25219;52.244;21.006;2024-02-28T06:12:04;56.10;;;30.63;;
39540;SDS011;25219;52.244;21.006;2024-02-28T06:14:30;57.60;;;31.33;;
39540;SDS011;25219;52.244;21.006;2024-02-28T06:16:55;61.63;;;31.37;;
39540;SDS011;25219;52.244;21.006;2024-02-28T06:19:20;57.40;;;31.53;;
39540;SDS011;25219;52.244;21.006;2024-02-28T06:21:45;58.57;;;29.40;;
39540;SDS011;25219;52.244;21.006;2024-02-28T06:24:10;60.80;;;32.30;;
39540;SDS011;25219;52.244;21.006;2024-02-28T06:26:35;59.20;;;32.00;;
39540;SDS011;25219;52.244;21.006;2024-02-28T06:29:01;59.93;;;31.17;;
39540;SDS011;25219;52.244;21.006;2024-02-28T06:31:29;60.70;;;31.23;;
39540;SDS011;25219;52.244;21.006;2024-02-28T06:33:57;60.08;;;32.38;;
39540;SDS011;25219;52.244;21.006;2024-02-28T06:36:22;58.33;;;31.65;;
39540;SDS011;25219;52.244;21.006;2024-02-28T06:38:47;56.77;;;32.13;;
39540;SDS011;25219;52.244;21.006;2024-02-28T06:41:13;59.37;;;31.30;;
39540;SDS011;25219;52.244;21.006;2024-02-28T06:43:38;55.92;;;30.05;;
39540;SDS011;25219;52.244;21.006;2024-02-28T06:46:03;52.78;;;31.70;;
39540;SDS011;25219;52.244;21.006;2024-02-28T06:48:29;62.72;;;33.15;;
39540;SDS011;25219;52.244;21.006;2024-02-28T06:50:54;69.07;;;33.72;;
39540;SDS011;25219;52.244;21.006;2024-02-28T06:53:19;62.40;;;33.33;;
39540;SDS011;25219;52.244;21.006;2024-02-28T06:55:45;65.53;;;33.50;;
39540;SDS011;25219;52.244;21.006;2024-02-28T06:58:10;59.35;;;32.28;;
39540;SDS011;25219;52.244;21.006;2024-02-28T07:00:35;66.80;;;32.38;;
39540;SDS011;25219;52.244;21.006;2024-02-28T07:03:01;58.83;;;32.23;;
39540;SDS011;25219;52.244;21.006;2024-02-28T07:05:26;59.57;;;32.37;;
39540;SDS011;25219;52.244;21.006;2024-02-28T07:07:51;58.17;;;30.17;;
39540;SDS011;25219;52.244;21.006;2024-02-28T07:10:16;60.40;;;30.25;;
39540;SDS011;25219;52.244;21.006;2024-02-28T07:12:41;56.83;;;30.13;;
39540;SDS011;25219;52.244;21.006;2024-02-28T07:15:07;56.00;;;29.23;;
39540;SDS011;25219;52.244;21.006;2024-02-28T07:17:32;57.70;;;30.33;;
39540;SDS011;25219;52.244;21.006;2024-02-28T07:19:57;57.10;;;30.37;;
39540;SDS011;25219;52.244;21.006;2024-02-28T07:22:22;55.90;;;30.17;;
39540;SDS011;25219;52.244;21.006;2024-02-28T07:24:48;55.10;;;30.50;;
39540;SDS011;25219;52.244;21.006;2024-02-28T07:27:13;55.72;;;28.92;;
39540;SDS011;25219;52.244;21.006;2024-02-28T07:29:38;54.87;;;30.23;;
39540;SDS011;25219;52.244;21.006;2024-02-28T07:32:04;54.77;;;29.40;;
39540;SDS011;25219;52.244;21.006;2024-02-28T07:34:29;57.70;;;30.08;;
39540;SDS011;25219;52.244;21.006;2024-02-28T07:36:54;53.77;;;29.40;;
39540;SDS011;25219;52.244;21.006;2024-02-28T07:39:19;52.22;;;29.25;;
39540;SDS011;25219;52.244;21.006;2024-02-28T07:41:45;58.58;;;30.00;;
39540;SDS011;25219;52.244;21.006;2024-02-28T07:44:11;51.73;;;28.30;;
39540;SDS011;25219;52.244;21.006;2024-02-28T07:46:36;53.65;;;29.83;;
39540;SDS011;25219;52.244;21.006;2024-02-28T07:49:01;54.47;;;29.80;;
39540;SDS011;25219;52.244;21.006;2024-02-28T07:51:27;53.17;;;30.08;;
39540;SDS011;25219;52.244;21.006;2024-02-28T07:53:52;49.00;;;29.42;;
39540;SDS011;25219;52.244;21.006;2024-02-28T07:56:18;53.70;;;28.70;;
39540;SDS011;25219;52.244;21.006;2024-02-28T07:58:43;56.80;;;30.02;;
39540;SDS011;25219;52.244;21.006;2024-02-28T08:01:09;55.10;;;29.77;;
39540;SDS011;25219;52.244;21.006;2024-02-28T08:03:34;58.90;;;29.80;;
39540;SDS011;25219;52.244;21.006;2024-02-28T08:05:59;55.07;;;29.10;;
39540;SDS011;25219;52.244;21.006;2024-02-28T08:08:25;50.63;;;29.00;;
39540;SDS011;25219;52.244;21.006;2024-02-28T08:10:50;53.23;;;30.90;;
39540;SDS011;25219;52.244;21.006;2024-02-28T08:13:17;56.55;;;28.65;;
39540;SDS011;25219;52.244;21.006;2024-02-28T08:15:43;52.17;;;28.27;;
39540;SDS011;25219;52.244;21.006;2024-02-28T08:18:08;56.80;;;29.00;;
39540;SDS011;25219;52.244;21.006;2024-02-28T08:20:34;50.00;;;28.30;;
39540;SDS011;25219;52.244;21.006;2024-02-28T08:22:59;56.08;;;29.65;;
39540;SDS011;25219;52.244;21.006;2024-02-28T08:25:25;60.50;;;29.10;;
39540;SDS011;25219;52.244;21.006;2024-02-28T08:27:50;45.97;;;27.23;;
39540;SDS011;25219;52.244;21.006;2024-02-28T08:30:15;51.03;;;29.37;;
39540;SDS011;25219;52.244;21.006;2024-02-28T08:32:41;51.78;;;27.33;;
39540;SDS011;25219;52.244;21.006;2024-02-28T08:35:07;49.78;;;28.17;;
39540;SDS011;25219;52.244;21.006;2024-02-28T08:37:33;55.45;;;29.73;;
39540;SDS011;25219;52.244;21.006;2024-02-28T08:39:58;46.43;;;27.07;;
39540;SDS011;25219;52.244;21.006;2024-02-28T08:42:24;47.83;;;27.10;;
39540;SDS011;25219;52.244;21.006;2024-02-28T08:44:49;46.60;;;25.92;;
39540;SDS011;25219;52.244;21.006;2024-02-28T08:47:14;49.65;;;27.13;;
39540;SDS011;25219;52.244;21.006;2024-02-28T08:49:40;50.10;;;27.47;;
39540;SDS011;25219;52.244;21.006;2024-02-28T08:52:05;54.83;;;27.73;;
39540;SDS011;25219;52.244;21.006;2024-02-28T08:54:30;51.80;;;28.40;;
39540;SDS011;25219;52.244;21.006;2024-02-28T08:56:56;48.35;;;25.60;;
39540;SDS011;25219;52.244;21.006;2024-02-28T08:59:21;45.77;;;26.60;;
39540;SDS011;25219;52.244;21.006;2024-02-28T09:01:47;54.25;;;26.92;;
39540;SDS011;25219;52.244;21.006;2024-02-28T09:04:12;46.13;;;25.88;;
39540;SDS011;25219;52.244;21.006;2024-02-28T09:06:37;45.13;;;25.90;;
39540;SDS011;25219;52.244;21.006;2024-02-28T09:09:02;42.05;;;24.55;;
39540;SDS011;25219;52.244;21.006;2024-02-28T09:11:28;44.85;;;25.15;;
39540;SDS011;25219;52.244;21.006;2024-02-28T09:13:54;43.53;;;25.27;;
39540;SDS011;25219;52.244;21.006;2024-02-28T09:16:19;48.88;;;26.42;;
39540;SDS011;25219;52.244;21.006;2024-02-28T09:18:45;42.38;;;25.55;;
39540;SDS011;25219;52.244;21.006;2024-02-28T09:21:10;45.97;;;25.92;;
39540;SDS011;25219;52.244;21.006;2024-02-28T09:23:35;50.40;;;25.13;;
39540;SDS011;25219;52.244;21.006;2024-02-28T09:26:03;52.50;;;27.77;;
39540;SDS011;25219;52.244;21.006;2024-02-28T09:28:29;47.75;;;26.00;;
39540;SDS011;25219;52.244;21.006;2024-02-28T09:30:54;44.03;;;24.83;;
39540;SDS011;25219;52.244;21.006;2024-02-28T09:33:19;51.83;;;26.33;;
39540;SDS011;25219;52.244;21.006;2024-02-28T09:35:44;45.53;;;25.40;;
39540;SDS011;25219;52.244;21.006;2024-02-28T09:38:10;49.05;;;26.20;;
39540;SDS011;25219;52.244;21.006;2024-02-28T09:40:35;57.87;;;25.27;;
39540;SDS011;25219;52.244;21.006;2024-02-28T09:43:01;46.23;;;24.43;;
39540;SDS011;25219;52.244;21.006;2024-02-28T09:45:30;44.35;;;25.05;;
39540;SDS011;25219;52.244;21.006;2024-02-28T09:48:01;50.20;;;26.42;;
39540;SDS011;25219;52.244;21.006;2024-02-28T09:50:26;43.67;;;23.73;;
39540;SDS011;25219;52.244;21.006;2024-02-28T09:52:52;39.22;;;22.88;;
39540;SDS011;25219;52.244;21.006;2024-02-28T09:55:17;47.80;;;24.67;;
39540;SDS011;25219;52.244;21.006;2024-02-28T09:57:42;39.25;;;24.05;;
39540;SDS011;25219;52.244;21.006;2024-02-28T10:00:09;45.50;;;23.25;;
39540;SDS011;25219;52.244;21.006;2024-02-28T10:02:34;39.80;;;23.85;;
39540;SDS011;25219;52.244;21.006;2024-02-28T10:05:00;41.13;;;23.92;;
39540;SDS011;25219;52.244;21.006;2024-02-28T10:07:27;43.63;;;24.17;;
39540;SDS011;25219;52.244;21.006;2024-02-28T10:09:52;43.92;;;24.63;;
39540;SDS011;25219;52.244;21.006;2024-02-28T10:12:17;47.70;;;24.27;;
39540;SDS011;25219;52.244;21.006;2024-02-28T10:14:44;50.38;;;24.52;;
39540;SDS011;25219;52.244;21.006;2024-02-28T10:17:09;46.40;;;26.83;;
39540;SDS011;25219;52.244;21.006;2024-02-28T10:19:34;48.10;;;25.33;;
39540;SDS011;25219;52.244;21.006;2024-02-28T10:21:59;41.07;;;23.87;;
39540;SDS011;25219;52.244;21.006;2024-02-28T10:24:24;45.03;;;24.88;;
39540;SDS011;25219;52.244;21.006;2024-02-28T10:26:50;43.25;;;25.35;;
39540;SDS011;25219;52.244;21.006;2024-02-28T10:29:23;43.08;;;24.85;;
39540;SDS011;25219;52.244;21.006;2024-02-28T10:31:56;41.28;;;24.73;;
39540;SDS011;25219;52.244;21.006;2024-02-28T10:34:22;44.88;;;24.58;;
39540;SDS011;25219;52.244;21.006;2024-02-28T10:36:47;48.97;;;25.55;;
39540;SDS011;25219;52.244;21.006;2024-02-28T10:39:14;40.70;;;24.80;;
39540;SDS011;25219;52.244;21.006;2024-02-28T10:41:39;41.43;;;24.00;;
39540;SDS011;25219;52.244;21.006;2024-02-28T10:44:04;47.47;;;26.45;;
39540;SDS011;25219;52.244;21.006;2024-02-28T10:46:30;46.17;;;26.50;;
39540;SDS011;25219;52.244;21.006;2024-02-28T10:48:55;47.47;;;25.52;;
39540;SDS011;25219;52.244;21.006;2024-02-28T10:51:22;43.17;;;25.70;;
39540;SDS011;25219;52.244;21.006;2024-02-28T10:53:49;46.72;;;26.30;;
39540;SDS011;25219;52.244;21.006;2024-02-28T10:56:16;48.22;;;25.60;;
39540;SDS011;25219;52.244;21.006;2024-02-28T10:58:48;47.10;;;25.88;;
39540;SDS011;25219;52.244;21.006;2024-02-28T11:01:15;43.85;;;25.20;;
39540;SDS011;25219;52.244;21.006;2024-02-28T11:03:41;50.35;;;26.13;;
39540;SDS011;25219;52.244;21.006;2024-02-28T11:06:15;43.00;;;24.30;;
39540;SDS011;25219;52.244;21.006;2024-02-28T11:08:45;47.65;;;26.60;;
39540;SDS011;25219;52.244;21.006;2024-02-28T11:11:13;44.20;;;24.58;;
39540;SDS011;25219;52.244;21.006;2024-02-28T11:13:38;46.90;;;26.30;;
39540;SDS011;25219;52.244;21.006;2024-02-28T11:16:12;47.70;;;24.90;;
39540;SDS011;25219;52.244;21.006;2024-02-28T11:18:50;55.83;;;27.17;;
39540;SDS011;25219;52.244;21.006;2024-02-28T11:21:15;44.55;;;26.20;;
39540;SDS011;25219;52.244;21.006;2024-02-28T11:23:41;52.00;;;26.08;;
39540;SDS011;25219;52.244;21.006;2024-02-28T11:26:06;53.42;;;27.35;;
39540;SDS011;25219;52.244;21.006;2024-02-28T11:28:31;46.92;;;27.60;;
39540;SDS011;25219;52.244;21.006;2024-02-28T11:30:56;56.03;;;27.13;;
39540;SDS011;25219;52.244;21.006;2024-02-28T11:33:21;49.30;;;28.07;;
39540;SDS011;25219;52.244;21.006;2024-02-28T11:35:56;56.80;;;29.70;;
39540;SDS011;25219;52.244;21.006;2024-02-28T11:38:23;60.13;;;30.88;;
39540;SDS011;25219;52.244;21.006;2024-02-28T11:40:49;60.28;;;32.10;;
39540;SDS011;25219;52.244;21.006;2024-02-28T11:43:14;62.78;;;32.45;;
39540;SDS011;25219;52.244;21.006;2024-02-28T11:45:40;67.07;;;33.33;;
39540;SDS011;25219;52.244;21.006;2024-02-28T11:48:06;62.63;;;33.10;;
39540;SDS011;25219;52.244;21.006;2024-02-28T11:50:31;62.47;;;31.98;;
39540;SDS011;25219;52.244;21.006;2024-02-28T11:52:57;67.40;;;32.97;;
39540;SDS011;25219;52.244;21.006;2024-02-28T11:55:24;63.65;;;33.70;;
39540;SDS011;25219;52.244;21.006;2024-02-28T11:57:50;68.53;;;35.05;;
39540;SDS011;25219;52.244;21.006;2024-02-28T12:00:16;72.32;;;38.50;;
39540;SDS011;25219;52.244;21.006;2024-02-28T12:02:41;78.97;;;39.33;;
39540;SDS011;25219;52.244;21.006;2024-02-28T12:05:06;89.47;;;41.97;;
39540;SDS011;25219;52.244;21.006;2024-02-28T12:07:32;75.38;;;40.63;;
39540;SDS011;25219;52.244;21.006;2024-02-28T12:10:00;80.13;;;42.93;;
39540;SDS011;25219;52.244;21.006;2024-02-28T12:12:26;86.60;;;43.78;;
39540;SDS011;25219;52.244;21.006;2024-02-28T12:14:52;80.88;;;42.00;;
39540;SDS011;25219;52.244;21.006;2024-02-28T12:17:17;87.55;;;42.50;;
39540;SDS011;25219;52.244;21.006;2024-02-28T12:19:42;82.73;;;41.33;;
39540;SDS011;25219;52.244;21.006;2024-02-28T12:22:08;80.43;;;41.13;;
39540;SDS011;25219;52.244;21.006;2024-02-28T12:24:33;79.07;;;39.15;;
39540;SDS011;25219;52.244;21.006;2024-02-28T12:26:58;73.80;;;40.57;;
39540;SDS011;25219;52.244;21.006;2024-02-28T12:29:24;74.90;;;39.97;;
39540;SDS011;25219;52.244;21.006;2024-02-28T12:31:49;73.97;;;37.57;;
39540;SDS011;25219;52.244;21.006;2024-02-28T12:34:14;75.65;;;36.50;;
39540;SDS011;25219;52.244;21.006;2024-02-28T12:36:40;76.82;;;36.80;;
39540;SDS011;25219;52.244;21.006;2024-02-28T12:39:05;76.85;;;37.08;;
39540;SDS011;25219;52.244;21.006;2024-02-28T12:41:31;67.85;;;35.20;;
39540;SDS011;25219;52.244;21.006;2024-02-28T12:43:56;70.90;;;35.13;;
39540;SDS011;25219;52.244;21.006;2024-02-28T12:46:21;64.93;;;34.90;;
39540;SDS011;25219;52.244;21.006;2024-02-28T12:48:47;63.67;;;33.70;;
39540;SDS011;25219;52.244;21.006;2024-02-28T12:53:58;58.53;;;31.02;;
39540;SDS011;25219;52.244;21.006;2024-02-28T12:56:26;57.30;;;31.73;;
39540;SDS011;25219;52.244;21.006;2024-02-28T12:58:51;64.22;;;32.83;;
39540;SDS011;25219;52.244;21.006;2024-02-28T13:01:16;56.25;;;30.55;;
39540;SDS011;25219;52.244;21.006;2024-02-28T13:03:42;62.33;;;32.17;;
39540;SDS011;25219;52.244;21.006;2024-02-28T13:06:07;56.77;;;31.37;;
39540;SDS011;25219;52.244;21.006;2024-02-28T13:08:32;57.00;;;30.93;;
39540;SDS011;25219;52.244;21.006;2024-02-28T13:10:57;57.60;;;29.45;;
39540;SDS011;25219;52.244;21.006;2024-02-28T13:13:22;59.30;;;29.80;;
39540;SDS011;25219;52.244;21.006;2024-02-28T13:15:48;59.15;;;31.23;;
39540;SDS011;25219;52.244;21.006;2024-02-28T13:18:13;54.83;;;30.50;;
39540;SDS011;25219;52.244;21.006;2024-02-28T13:20:39;60.07;;;31.13;;
39540;SDS011;25219;52.244;21.006;2024-02-28T13:23:06;58.65;;;29.85;;
39540;SDS011;25219;52.244;21.006;2024-02-28T13:25:35;59.17;;;30.27;;
39540;SDS011;25219;52.244;21.006;2024-02-28T13:28:00;59.83;;;32.23;;
39540;SDS011;25219;52.244;21.006;2024-02-28T13:30:25;67.85;;;30.08;;
39540;SDS011;25219;52.244;21.006;2024-02-28T13:32:50;55.27;;;28.97;;
39540;SDS011;25219;52.244;21.006;2024-02-28T13:35:16;53.65;;;29.30;;
39540;SDS011;25219;52.244;21.006;2024-02-28T13:37:41;54.15;;;29.42;;
39540;SDS011;25219;52.244;21.006;2024-02-28T13:40:07;56.30;;;28.43;;
39540;SDS011;25219;52.244;21.006;2024-02-28T13:42:32;52.22;;;26.23;;
39540;SDS011;25219;52.244;21.006;2024-02-28T13:44:57;50.27;;;26.47;;
39540;SDS011;25219;52.244;21.006;2024-02-28T13:47:23;46.53;;;25.40;;
39540;SDS011;25219;52.244;21.006;2024-02-28T13:49:48;49.00;;;26.23;;
39540;SDS011;25219;52.244;21.006;2024-02-28T13:52:14;48.78;;;24.70;;
39540;SDS011;25219;52.244;21.006;2024-02-28T13:54:40;41.73;;;21.97;;
39540;SDS011;25219;52.244;21.006;2024-02-28T13:57:05;42.33;;;21.30;;
39540;SDS011;25219;52.244;21.006;2024-02-28T13:59:30;40.28;;;21.63;;
39540;SDS011;25219;52.244;21.006;2024-02-28T14:01:55;43.97;;;22.30;;